OAS124 KEWR-SKCL
Flight info
| Callsign | OAS124 |
|---|---|
| Flight time | 5h 18m |
| Altitude | 38000 |
| Route | LAURN Q22 BBOBO DCT SWNGR Q111 ZORDO Q107 GARIC AR3 JAZZI AR24 URSUS/N0492F390 UL780 TBG UN420 BUSMO UW90 ASIKO ASIKO1C |
| Aircraft | B789/H-SDE1E2E3FGHIJ2J3J4J5M1RWXY/LB1D1 |
Departure
| Time | 2026-05-03 21:08 |
|---|---|
| Airport | Newark Liberty International Airport (KEWR) |
Arrival
| Time | 2026-05-04 02:26 |
|---|---|
| Airport | Alfonso Bonilla Aragon International Airport (SKCL) |
| Time | Latitude | Longitude | Altitude | Speed | Heading |
|---|---|---|---|---|---|
| 2026-05-03 20:40 | 40.69186 | -74.17322 | 27 ft | 0 kts | 275° |
| 2026-05-03 20:55 | 40.69187 | -74.17324 | 27 ft | 4 kts | 276° |
| 2026-05-03 20:55 | 40.69186 | -74.17322 | 27 ft | 1 kts | 275° |
| 2026-05-03 20:55 | 40.69182 | -74.17298 | 25 ft | 4 kts | 327° |
| 2026-05-03 20:56 | 40.69160 | -74.17283 | 26 ft | 4 kts | 335° |
| 2026-05-03 20:56 | 40.69147 | -74.17275 | 26 ft | 6 kts | 335° |
| 2026-05-03 20:58 | 40.69143 | -74.17273 | 26 ft | 2 kts | 336° |
| 2026-05-03 20:58 | 40.69128 | -74.17264 | 26 ft | 3 kts | 339° |
| 2026-05-03 20:58 | 40.69103 | -74.17251 | 34 ft | 4 kts | 327° |
| 2026-05-03 20:58 | 40.69088 | -74.17240 | 35 ft | 1 kts | 352° |
| 2026-05-03 20:59 | 40.69085 | -74.17239 | 37 ft | 0 kts | 1° |
| 2026-05-03 20:59 | 40.69083 | -74.17239 | 20 ft | 1 kts | 5° |
| 2026-05-03 20:59 | 40.69081 | -74.17239 | 19 ft | 0 kts | 10° |
| 2026-05-03 21:01 | 40.69086 | -74.17237 | 36 ft | 1 kts | 14° |
| 2026-05-03 21:01 | 40.69110 | -74.17224 | 31 ft | 6 kts | 23° |
| 2026-05-03 21:01 | 40.69161 | -74.17193 | 26 ft | 10 kts | 25° |
| 2026-05-03 21:02 | 40.69236 | -74.17146 | 27 ft | 14 kts | 26° |
| 2026-05-03 21:02 | 40.69328 | -74.17088 | 27 ft | 15 kts | 26° |
| 2026-05-03 21:02 | 40.69431 | -74.17023 | 27 ft | 17 kts | 26° |
| 2026-05-03 21:02 | 40.69546 | -74.16949 | 27 ft | 17 kts | 25° |
| 2026-05-03 21:03 | 40.69624 | -74.16901 | 27 ft | 9 kts | 25° |
| 2026-05-03 21:03 | 40.69683 | -74.16864 | 27 ft | 9 kts | 25° |
| 2026-05-03 21:03 | 40.69742 | -74.16825 | 27 ft | 10 kts | 26° |
| 2026-05-03 21:03 | 40.69804 | -74.16787 | 27 ft | 10 kts | 17° |
| 2026-05-03 21:04 | 40.69870 | -74.16768 | 27 ft | 10 kts | 8° |
| 2026-05-03 21:04 | 40.69937 | -74.16760 | 27 ft | 9 kts | 5° |
| 2026-05-03 21:04 | 40.69987 | -74.16747 | 27 ft | 4 kts | 36° |
| 2026-05-03 21:04 | 40.69996 | -74.16727 | 27 ft | 2 kts | 76° |
| 2026-05-03 21:05 | 40.69998 | -74.16705 | 27 ft | 1 kts | 95° |
| 2026-05-03 21:05 | 40.69995 | -74.16661 | 27 ft | 9 kts | 95° |
| 2026-05-03 21:05 | 40.69989 | -74.16564 | 26 ft | 0 kts | 94° |
| 2026-05-03 21:06 | 40.69989 | -74.16563 | 26 ft | 1 kts | 94° |
| 2026-05-03 21:06 | 40.69986 | -74.16513 | 31 ft | 10 kts | 95° |
| 2026-05-03 21:06 | 40.69976 | -74.16401 | 26 ft | 2 kts | 117° |
| 2026-05-03 21:07 | 40.69971 | -74.16397 | 30 ft | 1 kts | 150° |
| 2026-05-03 21:07 | 40.69963 | -74.16399 | 24 ft | 2 kts | 193° |
| 2026-05-03 21:07 | 40.69906 | -74.16439 | 29 ft | 22 kts | 207° |
| 2026-05-03 21:07 | 40.69558 | -74.16660 | 29 ft | 91 kts | 205° |
| 2026-05-03 21:08 | 40.68765 | -74.17161 | 31 ft | 158 kts | 207° |
| 2026-05-03 21:08 | 40.67659 | -74.17853 | 464 ft | 180 kts | 214° |
| 2026-05-03 21:08 | 40.66393 | -74.18270 | 1286 ft | 211 kts | 182° |
| 2026-05-03 21:08 | 40.64936 | -74.17954 | 2261 ft | 221 kts | 179° |
| 2026-05-03 21:09 | 40.63325 | -74.18117 | 2450 ft | 243 kts | 206° |
| 2026-05-03 21:09 | 40.61865 | -74.19181 | 2476 ft | 238 kts | 217° |
| 2026-05-03 21:09 | 40.60420 | -74.20268 | 2497 ft | 240 kts | 215° |
| 2026-05-03 21:09 | 40.58930 | -74.21296 | 2482 ft | 243 kts | 213° |
| 2026-05-03 21:10 | 40.57411 | -74.22316 | 2452 ft | 245 kts | 213° |
| 2026-05-03 21:10 | 40.55899 | -74.23347 | 2462 ft | 247 kts | 213° |
| 2026-05-03 21:10 | 40.54885 | -74.24046 | 2468 ft | 247 kts | 213° |
| 2026-05-03 21:10 | 40.52875 | -74.25425 | 2478 ft | 246 kts | 213° |
| 2026-05-03 21:11 | 40.51347 | -74.26473 | 2477 ft | 245 kts | 213° |
| 2026-05-03 21:11 | 40.49830 | -74.27514 | 2477 ft | 248 kts | 213° |
| 2026-05-03 21:11 | 40.48796 | -74.28219 | 2504 ft | 244 kts | 213° |
| 2026-05-03 21:11 | 40.47279 | -74.29257 | 2477 ft | 247 kts | 213° |
| 2026-05-03 21:12 | 40.45785 | -74.30312 | 2510 ft | 247 kts | 215° |
| 2026-05-03 21:12 | 40.44297 | -74.31470 | 3109 ft | 244 kts | 216° |
| 2026-05-03 21:12 | 40.42830 | -74.32599 | 4258 ft | 247 kts | 216° |
| 2026-05-03 21:12 | 40.41323 | -74.33728 | 5282 ft | 250 kts | 215° |
| 2026-05-03 21:13 | 40.39772 | -74.34888 | 5974 ft | 266 kts | 216° |
| 2026-05-03 21:13 | 40.38148 | -74.36108 | 6000 ft | 265 kts | 215° |
| 2026-05-03 21:13 | 40.36567 | -74.37287 | 6001 ft | 260 kts | 216° |
| 2026-05-03 21:13 | 40.34994 | -74.38471 | 6018 ft | 263 kts | 216° |
| 2026-05-03 21:14 | 40.33439 | -74.39633 | 7016 ft | 257 kts | 216° |
| 2026-05-03 21:14 | 40.31864 | -74.40816 | 7833 ft | 267 kts | 216° |
| 2026-05-03 21:14 | 40.30210 | -74.42064 | 8003 ft | 278 kts | 216° |
| 2026-05-03 21:14 | 40.28545 | -74.43299 | 8008 ft | 272 kts | 216° |
| 2026-05-03 21:15 | 40.26908 | -74.44519 | 8012 ft | 269 kts | 216° |
| 2026-05-03 21:15 | 40.25285 | -74.45734 | 8003 ft | 268 kts | 216° |
| 2026-05-03 21:15 | 40.23666 | -74.46948 | 8026 ft | 269 kts | 216° |
| 2026-05-03 21:15 | 40.22041 | -74.48159 | 8015 ft | 268 kts | 216° |
| 2026-05-03 21:16 | 40.20435 | -74.49387 | 8017 ft | 266 kts | 221° |
| 2026-05-03 21:16 | 40.19213 | -74.51114 | 8020 ft | 257 kts | 238° |
| 2026-05-03 21:16 | 40.17997 | -74.52857 | 8062 ft | 264 kts | 231° |
| 2026-05-03 21:16 | 40.16715 | -74.54574 | 8984 ft | 260 kts | 233° |
| 2026-05-03 21:17 | 40.15494 | -74.56320 | 9862 ft | 266 kts | 234° |
| 2026-05-03 21:17 | 40.14258 | -74.58141 | 10693 ft | 269 kts | 234° |
| 2026-05-03 21:17 | 40.12997 | -74.59965 | 11564 ft | 272 kts | 234° |
| 2026-05-03 21:17 | 40.11717 | -74.61800 | 12417 ft | 274 kts | 234° |
| 2026-05-03 21:18 | 40.10427 | -74.63654 | 13289 ft | 277 kts | 234° |
| 2026-05-03 21:18 | 40.09127 | -74.65526 | 14117 ft | 280 kts | 234° |
| 2026-05-03 21:18 | 40.07811 | -74.67418 | 14873 ft | 282 kts | 234° |
| 2026-05-03 21:18 | 40.06483 | -74.69325 | 15652 ft | 285 kts | 235° |
| 2026-05-03 21:19 | 40.05162 | -74.71222 | 16397 ft | 287 kts | 235° |
| 2026-05-03 21:19 | 40.03812 | -74.73154 | 17152 ft | 290 kts | 234° |
| 2026-05-03 21:19 | 40.02125 | -74.74845 | 17262 ft | 324 kts | 219° |
| 2026-05-03 21:19 | 40.00202 | -74.76561 | 17306 ft | 346 kts | 223° |
| 2026-05-03 21:20 | 39.98215 | -74.78502 | 17363 ft | 369 kts | 223° |
| 2026-05-03 21:20 | 39.96062 | -74.80516 | 17437 ft | 391 kts | 221° |
| 2026-05-03 21:20 | 39.93788 | -74.82550 | 18004 ft | 397 kts | 220° |
| 2026-05-03 21:20 | 39.91512 | -74.84611 | 18651 ft | 399 kts | 221° |
| 2026-05-03 21:21 | 39.89293 | -74.86776 | 19205 ft | 397 kts | 228° |
| 2026-05-03 21:21 | 39.87225 | -74.89195 | 19747 ft | 399 kts | 227° |
| 2026-05-03 21:21 | 39.85142 | -74.91535 | 20326 ft | 402 kts | 227° |
| 2026-05-03 21:21 | 39.83010 | -74.93914 | 20889 ft | 404 kts | 227° |
| 2026-05-03 21:22 | 39.80881 | -74.96325 | 21425 ft | 406 kts | 227° |
| 2026-05-03 21:22 | 39.78753 | -74.98745 | 21971 ft | 409 kts | 227° |
| 2026-05-03 21:22 | 39.76591 | -75.01183 | 22490 ft | 411 kts | 227° |
| 2026-05-03 21:22 | 39.74421 | -75.03614 | 23001 ft | 413 kts | 227° |
| 2026-05-03 21:23 | 39.72241 | -75.06061 | 23483 ft | 415 kts | 227° |
| 2026-05-03 21:23 | 39.70055 | -75.08520 | 23894 ft | 417 kts | 227° |
| 2026-05-03 21:23 | 39.67857 | -75.10991 | 24294 ft | 418 kts | 228° |
| 2026-05-03 21:23 | 39.65737 | -75.13567 | 24631 ft | 419 kts | 230° |
| 2026-05-03 21:24 | 39.63610 | -75.16161 | 25022 ft | 420 kts | 229° |
| 2026-05-03 21:24 | 39.61464 | -75.18766 | 25393 ft | 422 kts | 229° |
| 2026-05-03 21:24 | 39.59322 | -75.21377 | 25766 ft | 423 kts | 229° |
| 2026-05-03 21:24 | 39.57174 | -75.23999 | 26120 ft | 425 kts | 229° |
| 2026-05-03 21:25 | 39.55012 | -75.26631 | 26465 ft | 427 kts | 229° |
| 2026-05-03 21:25 | 39.52841 | -75.29267 | 26807 ft | 429 kts | 229° |
| 2026-05-03 21:25 | 39.50660 | -75.31914 | 27132 ft | 430 kts | 229° |
| 2026-05-03 21:25 | 39.48502 | -75.34535 | 27472 ft | 432 kts | 229° |
| 2026-05-03 21:26 | 39.46303 | -75.37201 | 27794 ft | 433 kts | 229° |
| 2026-05-03 21:26 | 39.44098 | -75.39872 | 28112 ft | 435 kts | 229° |
| 2026-05-03 21:26 | 39.41886 | -75.42548 | 28430 ft | 436 kts | 229° |
| 2026-05-03 21:26 | 39.39664 | -75.45235 | 28730 ft | 437 kts | 229° |
| 2026-05-03 21:27 | 39.37436 | -75.47926 | 29013 ft | 439 kts | 229° |
| 2026-05-03 21:27 | 39.35203 | -75.50621 | 29314 ft | 440 kts | 229° |
| 2026-05-03 21:27 | 39.32960 | -75.53325 | 29606 ft | 442 kts | 229° |
| 2026-05-03 21:27 | 39.30710 | -75.56035 | 29880 ft | 443 kts | 229° |
| 2026-05-03 21:28 | 39.28458 | -75.58746 | 30132 ft | 444 kts | 229° |
| 2026-05-03 21:28 | 39.26187 | -75.61476 | 30344 ft | 446 kts | 229° |
| 2026-05-03 21:28 | 39.23912 | -75.64209 | 30558 ft | 447 kts | 230° |
| 2026-05-03 21:28 | 39.21630 | -75.66947 | 30770 ft | 449 kts | 230° |
| 2026-05-03 21:29 | 39.19341 | -75.69692 | 30990 ft | 451 kts | 230° |
| 2026-05-03 21:29 | 39.17041 | -75.72447 | 31186 ft | 452 kts | 230° |
| 2026-05-03 21:29 | 39.14733 | -75.75208 | 31432 ft | 453 kts | 230° |
| 2026-05-03 21:29 | 39.12427 | -75.77964 | 31734 ft | 452 kts | 230° |
| 2026-05-03 21:30 | 39.10124 | -75.80715 | 32035 ft | 452 kts | 230° |
| 2026-05-03 21:30 | 39.07820 | -75.83466 | 32303 ft | 451 kts | 230° |
| 2026-05-03 21:30 | 39.05516 | -75.86212 | 32600 ft | 451 kts | 230° |
| 2026-05-03 21:30 | 39.03206 | -75.88963 | 32895 ft | 451 kts | 230° |
| 2026-05-03 21:31 | 39.00927 | -75.91675 | 33186 ft | 450 kts | 230° |
| 2026-05-03 21:31 | 38.98626 | -75.94411 | 33479 ft | 450 kts | 230° |
| 2026-05-03 21:31 | 38.96334 | -75.97133 | 33767 ft | 449 kts | 230° |
| 2026-05-03 21:31 | 38.93957 | -75.99764 | 34020 ft | 452 kts | 228° |
| 2026-05-03 21:32 | 38.91560 | -76.02375 | 34271 ft | 451 kts | 228° |
| 2026-05-03 21:32 | 38.89178 | -76.04975 | 34527 ft | 449 kts | 228° |
| 2026-05-03 21:32 | 38.86802 | -76.07568 | 34791 ft | 448 kts | 228° |
| 2026-05-03 21:32 | 38.84422 | -76.10159 | 35043 ft | 448 kts | 228° |
| 2026-05-03 21:33 | 38.82049 | -76.12740 | 35297 ft | 447 kts | 227° |
| 2026-05-03 21:33 | 38.79682 | -76.15312 | 35557 ft | 446 kts | 227° |
| 2026-05-03 21:33 | 38.77317 | -76.17880 | 35814 ft | 445 kts | 227° |
| 2026-05-03 21:33 | 38.74962 | -76.20436 | 36061 ft | 444 kts | 227° |
| 2026-05-03 21:34 | 38.72606 | -76.22990 | 36306 ft | 443 kts | 227° |
| 2026-05-03 21:34 | 38.70252 | -76.25539 | 36557 ft | 442 kts | 227° |
| 2026-05-03 21:34 | 38.67903 | -76.28081 | 36797 ft | 442 kts | 227° |
| 2026-05-03 21:34 | 38.65559 | -76.30615 | 37019 ft | 441 kts | 226° |
| 2026-05-03 21:35 | 38.63217 | -76.33145 | 37266 ft | 441 kts | 226° |
| 2026-05-03 21:35 | 38.60875 | -76.35672 | 37491 ft | 440 kts | 226° |
| 2026-05-03 21:35 | 38.58537 | -76.38194 | 37709 ft | 440 kts | 226° |
| 2026-05-03 21:35 | 38.56218 | -76.40693 | 37835 ft | 441 kts | 226° |
| 2026-05-03 21:36 | 38.53856 | -76.43235 | 37985 ft | 442 kts | 226° |
| 2026-05-03 21:36 | 38.51494 | -76.45776 | 38068 ft | 445 kts | 226° |
| 2026-05-03 21:36 | 38.46743 | -76.50876 | 38063 ft | 445 kts | 226° |
| 2026-05-03 21:37 | 38.42021 | -76.55937 | 38056 ft | 442 kts | 226° |
| 2026-05-03 21:37 | 38.37344 | -76.61008 | 38053 ft | 440 kts | 226° |
| 2026-05-03 21:38 | 38.32677 | -76.66059 | 38055 ft | 440 kts | 226° |
| 2026-05-03 21:38 | 38.28005 | -76.71100 | 38053 ft | 440 kts | 226° |
| 2026-05-03 21:39 | 38.23108 | -76.75812 | 38071 ft | 448 kts | 217° |
| 2026-05-03 21:39 | 38.17635 | -76.79656 | 38067 ft | 449 kts | 217° |
| 2026-05-03 21:40 | 38.12170 | -76.83484 | 38082 ft | 448 kts | 216° |
| 2026-05-03 21:40 | 38.06705 | -76.87296 | 38066 ft | 447 kts | 217° |
| 2026-05-03 21:41 | 38.01253 | -76.91100 | 38059 ft | 447 kts | 217° |
| 2026-05-03 21:41 | 37.95838 | -76.94867 | 38058 ft | 446 kts | 217° |
| 2026-05-03 21:42 | 37.90403 | -76.98644 | 38059 ft | 445 kts | 217° |
| 2026-05-03 21:42 | 37.84979 | -77.02405 | 38054 ft | 444 kts | 217° |
| 2026-05-03 21:43 | 37.79572 | -77.06150 | 38060 ft | 443 kts | 217° |
| 2026-05-03 21:43 | 37.74170 | -77.09893 | 38069 ft | 441 kts | 219° |
| 2026-05-03 21:44 | 37.69481 | -77.14616 | 38091 ft | 426 kts | 234° |
| 2026-05-03 21:44 | 37.66098 | -77.20625 | 38083 ft | 417 kts | 244° |
| 2026-05-03 21:45 | 37.62501 | -77.26457 | 38079 ft | 430 kts | 229° |
| 2026-05-03 21:45 | 37.57581 | -77.30922 | 38085 ft | 446 kts | 214° |
| 2026-05-03 21:46 | 37.51593 | -77.33481 | 38083 ft | 466 kts | 198° |
| 2026-05-03 21:46 | 37.45328 | -77.34387 | 38065 ft | 470 kts | 196° |
| 2026-05-03 21:47 | 37.38829 | -77.35241 | 38064 ft | 469 kts | 196° |
| 2026-05-03 21:47 | 37.32354 | -77.36098 | 38072 ft | 467 kts | 196° |
| 2026-05-03 21:48 | 37.25885 | -77.36951 | 38068 ft | 467 kts | 196° |
| 2026-05-03 21:48 | 37.19410 | -77.37802 | 38071 ft | 467 kts | 196° |
| 2026-05-03 21:49 | 37.12991 | -77.38646 | 38073 ft | 466 kts | 196° |
| 2026-05-03 21:49 | 37.06585 | -77.39670 | 38072 ft | 462 kts | 199° |
| 2026-05-03 21:50 | 37.00212 | -77.40822 | 38066 ft | 463 kts | 199° |
| 2026-05-03 21:50 | 36.93850 | -77.41973 | 38071 ft | 462 kts | 199° |
| 2026-05-03 21:51 | 36.87493 | -77.43121 | 38087 ft | 461 kts | 199° |
| 2026-05-03 21:51 | 36.81130 | -77.44268 | 38085 ft | 461 kts | 199° |
| 2026-05-03 21:52 | 36.74814 | -77.45404 | 38088 ft | 460 kts | 199° |
| 2026-05-03 21:52 | 36.68475 | -77.46544 | 38086 ft | 460 kts | 199° |
| 2026-05-03 21:53 | 36.62144 | -77.47679 | 38083 ft | 459 kts | 199° |
| 2026-05-03 21:53 | 36.55820 | -77.48812 | 38089 ft | 459 kts | 199° |
| 2026-05-03 21:54 | 36.49496 | -77.49956 | 38086 ft | 459 kts | 199° |
| 2026-05-03 21:54 | 36.43181 | -77.51104 | 38082 ft | 458 kts | 199° |
| 2026-05-03 21:55 | 36.36879 | -77.52243 | 38076 ft | 457 kts | 199° |
| 2026-05-03 21:55 | 36.30589 | -77.53381 | 38069 ft | 456 kts | 199° |
| 2026-05-03 21:56 | 36.24322 | -77.54511 | 38073 ft | 454 kts | 199° |
| 2026-05-03 21:56 | 36.18055 | -77.55642 | 38078 ft | 455 kts | 199° |
| 2026-05-03 21:57 | 36.11790 | -77.56767 | 38078 ft | 455 kts | 199° |
| 2026-05-03 21:57 | 36.05529 | -77.57892 | 38075 ft | 454 kts | 199° |
| 2026-05-03 21:58 | 35.99283 | -77.59012 | 38077 ft | 453 kts | 199° |
| 2026-05-03 21:58 | 35.93050 | -77.60128 | 38076 ft | 452 kts | 199° |
| 2026-05-03 21:59 | 35.87878 | -77.61052 | 38079 ft | 451 kts | 199° |
| 2026-05-03 21:59 | 35.81668 | -77.62161 | 38084 ft | 451 kts | 199° |
| 2026-05-03 22:00 | 35.75460 | -77.63267 | 38087 ft | 450 kts | 199° |
| 2026-05-03 22:00 | 35.69265 | -77.64369 | 38085 ft | 450 kts | 199° |
| 2026-05-03 22:01 | 35.63069 | -77.65470 | 38092 ft | 449 kts | 199° |
| 2026-05-03 22:01 | 35.56947 | -77.66732 | 38089 ft | 445 kts | 201° |
| 2026-05-03 22:02 | 35.50857 | -77.68110 | 38096 ft | 445 kts | 201° |
| 2026-05-03 22:02 | 35.44775 | -77.69485 | 38085 ft | 444 kts | 201° |
| 2026-05-03 22:03 | 35.38711 | -77.70856 | 38103 ft | 442 kts | 201° |
| 2026-05-03 22:03 | 35.32658 | -77.72221 | 38089 ft | 443 kts | 201° |
| 2026-05-03 22:04 | 35.26640 | -77.73575 | 38088 ft | 441 kts | 201° |
| 2026-05-03 22:04 | 35.20601 | -77.74934 | 38088 ft | 441 kts | 201° |
| 2026-05-03 22:05 | 35.14558 | -77.76290 | 38101 ft | 440 kts | 201° |
| 2026-05-03 22:05 | 35.08580 | -77.77631 | 38101 ft | 439 kts | 201° |
| 2026-05-03 22:06 | 35.02565 | -77.78978 | 38093 ft | 438 kts | 201° |
| 2026-05-03 22:06 | 34.96573 | -77.80316 | 38087 ft | 436 kts | 201° |
| 2026-05-03 22:07 | 34.90604 | -77.81649 | 38098 ft | 435 kts | 201° |
| 2026-05-03 22:07 | 34.84655 | -77.82840 | 38099 ft | 439 kts | 199° |
| 2026-05-03 22:08 | 34.78606 | -77.83811 | 38090 ft | 437 kts | 199° |
| 2026-05-03 22:08 | 34.72569 | -77.84772 | 38086 ft | 437 kts | 199° |
| 2026-05-03 22:09 | 34.66541 | -77.85730 | 38093 ft | 436 kts | 199° |
| 2026-05-03 22:10 | 34.57507 | -77.87165 | 38091 ft | 435 kts | 199° |
| 2026-05-03 22:10 | 34.51555 | -77.88108 | 38097 ft | 433 kts | 199° |
| 2026-05-03 22:11 | 34.45574 | -77.89056 | 38099 ft | 433 kts | 199° |
| 2026-05-03 22:11 | 34.39596 | -77.90000 | 38092 ft | 432 kts | 199° |
| 2026-05-03 22:12 | 34.33641 | -77.90941 | 38096 ft | 432 kts | 199° |
| 2026-05-03 22:12 | 34.27689 | -77.91878 | 38092 ft | 431 kts | 199° |
| 2026-05-03 22:13 | 34.21741 | -77.92815 | 38098 ft | 431 kts | 199° |
| 2026-05-03 22:13 | 34.15804 | -77.93747 | 38096 ft | 430 kts | 199° |
| 2026-05-03 22:14 | 34.09869 | -77.94679 | 38100 ft | 429 kts | 199° |
| 2026-05-03 22:14 | 34.03964 | -77.95605 | 38098 ft | 428 kts | 199° |
| 2026-05-03 22:15 | 33.98096 | -77.96523 | 38094 ft | 427 kts | 199° |
| 2026-05-03 22:15 | 33.92187 | -77.97446 | 38098 ft | 427 kts | 199° |
| 2026-05-03 22:16 | 33.86224 | -77.98051 | 38115 ft | 439 kts | 191° |
| 2026-05-03 22:16 | 33.80075 | -77.97694 | 38108 ft | 442 kts | 190° |
| 2026-05-03 22:17 | 33.73932 | -77.97330 | 38107 ft | 442 kts | 190° |
| 2026-05-03 22:17 | 33.67795 | -77.96953 | 38111 ft | 441 kts | 190° |
| 2026-05-03 22:18 | 33.61670 | -77.96587 | 38116 ft | 440 kts | 190° |
| 2026-05-03 22:18 | 33.55562 | -77.96216 | 38125 ft | 439 kts | 190° |
| 2026-05-03 22:19 | 33.49469 | -77.95851 | 38136 ft | 438 kts | 190° |
| 2026-05-03 22:19 | 33.43384 | -77.95484 | 38138 ft | 437 kts | 190° |
| 2026-05-03 22:20 | 33.37311 | -77.95119 | 38136 ft | 436 kts | 191° |
| 2026-05-03 22:20 | 33.31256 | -77.94755 | 38136 ft | 435 kts | 191° |
| 2026-05-03 22:21 | 33.25240 | -77.94396 | 38136 ft | 435 kts | 190° |
| 2026-05-03 22:21 | 33.19186 | -77.94033 | 38151 ft | 434 kts | 190° |
| 2026-05-03 22:22 | 33.13144 | -77.93674 | 38141 ft | 434 kts | 190° |
| 2026-05-03 22:22 | 33.07113 | -77.93314 | 38142 ft | 433 kts | 190° |
| 2026-05-03 22:23 | 33.01091 | -77.92957 | 38132 ft | 433 kts | 190° |
| 2026-05-03 22:23 | 32.95080 | -77.92597 | 38137 ft | 432 kts | 190° |
| 2026-05-03 22:24 | 32.89073 | -77.92243 | 38136 ft | 432 kts | 190° |
| 2026-05-03 22:24 | 32.83076 | -77.91885 | 38139 ft | 431 kts | 190° |
| 2026-05-03 22:25 | 32.77079 | -77.91531 | 38138 ft | 431 kts | 190° |
| 2026-05-03 22:25 | 32.71118 | -77.91178 | 38144 ft | 431 kts | 190° |
| 2026-05-03 22:26 | 32.65129 | -77.90824 | 38143 ft | 431 kts | 190° |
| 2026-05-03 22:26 | 32.59141 | -77.90471 | 38139 ft | 430 kts | 190° |
| 2026-05-03 22:27 | 32.53158 | -77.90118 | 38138 ft | 430 kts | 189° |
| 2026-05-03 22:27 | 32.47182 | -77.89767 | 38131 ft | 430 kts | 189° |
| 2026-05-03 22:28 | 32.41235 | -77.89418 | 38142 ft | 430 kts | 189° |
| 2026-05-03 22:28 | 32.35249 | -77.89066 | 38136 ft | 431 kts | 189° |
| 2026-05-03 22:29 | 32.29247 | -77.88715 | 38140 ft | 431 kts | 189° |
| 2026-05-03 22:29 | 32.23285 | -77.88366 | 38139 ft | 432 kts | 189° |
| 2026-05-03 22:30 | 32.17269 | -77.88015 | 38145 ft | 433 kts | 189° |
| 2026-05-03 22:30 | 32.11231 | -77.87662 | 38132 ft | 434 kts | 189° |
| 2026-05-03 22:31 | 32.05190 | -77.87309 | 38135 ft | 435 kts | 189° |
| 2026-05-03 22:31 | 31.99141 | -77.86959 | 38136 ft | 436 kts | 189° |
| 2026-05-03 22:32 | 31.93071 | -77.86604 | 38140 ft | 437 kts | 189° |
| 2026-05-03 22:32 | 31.87115 | -77.86711 | 38149 ft | 422 kts | 198° |
| 2026-05-03 22:33 | 31.81284 | -77.87652 | 38142 ft | 423 kts | 198° |
| 2026-05-03 22:33 | 31.75446 | -77.88586 | 38134 ft | 423 kts | 198° |
| 2026-05-03 22:34 | 31.69642 | -77.89522 | 38132 ft | 423 kts | 198° |
| 2026-05-03 22:34 | 31.63797 | -77.90459 | 38129 ft | 424 kts | 198° |
| 2026-05-03 22:35 | 31.57936 | -77.91399 | 38135 ft | 424 kts | 198° |
| 2026-05-03 22:35 | 31.52113 | -77.92331 | 38131 ft | 425 kts | 198° |
| 2026-05-03 22:36 | 31.46249 | -77.93269 | 38132 ft | 425 kts | 198° |
| 2026-05-03 22:36 | 31.40356 | -77.94211 | 38129 ft | 427 kts | 198° |
| 2026-05-03 22:37 | 31.34497 | -77.95144 | 38131 ft | 428 kts | 198° |
| 2026-05-03 22:37 | 31.28586 | -77.96086 | 38123 ft | 429 kts | 198° |
| 2026-05-03 22:38 | 31.22692 | -77.97023 | 38127 ft | 429 kts | 197° |
| 2026-05-03 22:38 | 31.16752 | -77.97968 | 38125 ft | 430 kts | 197° |
| 2026-05-03 22:39 | 31.10836 | -77.98906 | 38124 ft | 431 kts | 197° |
| 2026-05-03 22:39 | 31.04876 | -77.99851 | 38122 ft | 431 kts | 197° |
| 2026-05-03 22:40 | 30.98920 | -78.00793 | 38121 ft | 432 kts | 197° |
| 2026-05-03 22:40 | 30.92957 | -78.01736 | 38120 ft | 433 kts | 197° |
| 2026-05-03 22:41 | 30.86978 | -78.02680 | 38122 ft | 433 kts | 197° |
| 2026-05-03 22:41 | 30.80982 | -78.03626 | 38117 ft | 434 kts | 197° |
| 2026-05-03 22:42 | 30.75024 | -78.04563 | 38118 ft | 435 kts | 197° |
| 2026-05-03 22:42 | 30.69015 | -78.05509 | 38119 ft | 435 kts | 197° |
| 2026-05-03 22:43 | 30.62987 | -78.06456 | 38114 ft | 436 kts | 197° |
| 2026-05-03 22:43 | 30.56965 | -78.07400 | 38118 ft | 437 kts | 197° |
| 2026-05-03 22:44 | 30.50931 | -78.08346 | 38121 ft | 438 kts | 197° |
| 2026-05-03 22:44 | 30.45906 | -78.09132 | 38121 ft | 439 kts | 197° |
| 2026-05-03 22:45 | 30.38863 | -78.10237 | 38114 ft | 438 kts | 197° |
| 2026-05-03 22:45 | 30.32821 | -78.11224 | 38108 ft | 438 kts | 197° |
| 2026-05-03 22:46 | 30.26765 | -78.12193 | 38107 ft | 438 kts | 197° |
| 2026-05-03 22:46 | 30.20747 | -78.13163 | 38107 ft | 440 kts | 197° |
| 2026-05-03 22:47 | 30.14678 | -78.14135 | 38103 ft | 439 kts | 197° |
| 2026-05-03 22:47 | 30.08600 | -78.15112 | 38106 ft | 441 kts | 197° |
| 2026-05-03 22:48 | 30.02549 | -78.16079 | 38105 ft | 441 kts | 197° |
| 2026-05-03 22:48 | 29.97476 | -78.16892 | 38107 ft | 442 kts | 197° |
| 2026-05-03 22:49 | 29.91365 | -78.17868 | 38100 ft | 443 kts | 197° |
| 2026-05-03 22:49 | 29.85244 | -78.18844 | 38099 ft | 443 kts | 197° |
| 2026-05-03 22:50 | 29.79134 | -78.19818 | 38093 ft | 443 kts | 197° |
| 2026-05-03 22:50 | 29.73044 | -78.20789 | 38096 ft | 445 kts | 197° |
| 2026-05-03 22:51 | 29.66888 | -78.21766 | 38092 ft | 445 kts | 197° |
| 2026-05-03 22:51 | 29.60766 | -78.22739 | 38096 ft | 446 kts | 197° |
| 2026-05-03 22:52 | 29.54604 | -78.23716 | 38088 ft | 447 kts | 197° |
| 2026-05-03 22:52 | 29.48421 | -78.24696 | 38091 ft | 449 kts | 197° |
| 2026-05-03 22:53 | 29.42227 | -78.25675 | 38084 ft | 450 kts | 197° |
| 2026-05-03 22:53 | 29.36038 | -78.26653 | 38085 ft | 449 kts | 197° |
| 2026-05-03 22:54 | 29.29837 | -78.27632 | 38091 ft | 449 kts | 198° |
| 2026-05-03 22:54 | 29.23634 | -78.28611 | 38081 ft | 451 kts | 198° |
| 2026-05-03 22:55 | 29.17451 | -78.29583 | 38083 ft | 452 kts | 198° |
| 2026-05-03 22:55 | 29.11220 | -78.30564 | 38081 ft | 453 kts | 197° |
| 2026-05-03 22:56 | 29.04971 | -78.31544 | 38075 ft | 453 kts | 197° |
| 2026-05-03 22:56 | 28.98721 | -78.32525 | 38074 ft | 454 kts | 197° |
| 2026-05-03 22:57 | 28.92464 | -78.33505 | 38077 ft | 454 kts | 197° |
| 2026-05-03 22:57 | 28.86204 | -78.34485 | 38071 ft | 454 kts | 197° |
| 2026-05-03 22:58 | 28.79937 | -78.35464 | 38066 ft | 454 kts | 197° |
| 2026-05-03 22:58 | 28.73673 | -78.36443 | 38066 ft | 455 kts | 197° |
| 2026-05-03 22:59 | 28.67394 | -78.37421 | 38062 ft | 455 kts | 197° |
| 2026-05-03 22:59 | 28.61111 | -78.38400 | 38065 ft | 456 kts | 197° |
| 2026-05-03 23:00 | 28.54818 | -78.39378 | 38063 ft | 456 kts | 197° |
| 2026-05-03 23:00 | 28.48530 | -78.40355 | 38058 ft | 457 kts | 197° |
| 2026-05-03 23:01 | 28.42233 | -78.41332 | 38064 ft | 457 kts | 196° |
| 2026-05-03 23:01 | 28.35930 | -78.42308 | 38059 ft | 457 kts | 196° |
| 2026-05-03 23:02 | 28.29625 | -78.43285 | 38058 ft | 458 kts | 196° |
| 2026-05-03 23:02 | 28.23311 | -78.44261 | 38059 ft | 459 kts | 196° |
| 2026-05-03 23:03 | 28.16983 | -78.45238 | 38058 ft | 459 kts | 196° |
| 2026-05-03 23:03 | 28.10644 | -78.46216 | 38054 ft | 461 kts | 196° |
| 2026-05-03 23:04 | 28.04289 | -78.47195 | 38051 ft | 461 kts | 196° |
| 2026-05-03 23:04 | 27.97931 | -78.48173 | 38051 ft | 461 kts | 195° |
| 2026-05-03 23:05 | 27.91568 | -78.49151 | 38049 ft | 462 kts | 195° |
| 2026-05-03 23:05 | 27.85199 | -78.50128 | 38039 ft | 462 kts | 195° |
| 2026-05-03 23:06 | 27.78872 | -78.51099 | 38043 ft | 462 kts | 195° |
| 2026-05-03 23:06 | 27.72490 | -78.52075 | 38035 ft | 462 kts | 195° |
| 2026-05-03 23:07 | 27.66117 | -78.53051 | 38041 ft | 463 kts | 195° |
| 2026-05-03 23:07 | 27.59732 | -78.54026 | 38037 ft | 463 kts | 195° |
| 2026-05-03 23:08 | 27.53350 | -78.55000 | 38035 ft | 464 kts | 195° |
| 2026-05-03 23:08 | 27.46946 | -78.55976 | 38042 ft | 464 kts | 195° |
| 2026-05-03 23:09 | 27.40534 | -78.56952 | 38037 ft | 466 kts | 195° |
| 2026-05-03 23:09 | 27.34109 | -78.57929 | 38029 ft | 466 kts | 195° |
| 2026-05-03 23:10 | 27.27676 | -78.58906 | 38029 ft | 467 kts | 195° |
| 2026-05-03 23:10 | 27.21235 | -78.59883 | 38028 ft | 467 kts | 195° |
| 2026-05-03 23:11 | 27.14826 | -78.60854 | 38027 ft | 468 kts | 195° |
| 2026-05-03 23:11 | 27.08319 | -78.61839 | 38029 ft | 469 kts | 195° |
| 2026-05-03 23:12 | 27.01899 | -78.62809 | 38019 ft | 469 kts | 195° |
| 2026-05-03 23:12 | 26.95427 | -78.63787 | 38020 ft | 469 kts | 195° |
| 2026-05-03 23:13 | 26.88965 | -78.64761 | 38016 ft | 468 kts | 195° |
| 2026-05-03 23:13 | 26.82494 | -78.65736 | 38021 ft | 469 kts | 195° |
| 2026-05-03 23:14 | 26.76019 | -78.66710 | 38019 ft | 470 kts | 195° |
| 2026-05-03 23:14 | 26.69527 | -78.67686 | 38023 ft | 471 kts | 195° |
| 2026-05-03 23:15 | 26.63023 | -78.68662 | 38026 ft | 472 kts | 195° |
| 2026-05-03 23:15 | 26.56512 | -78.69638 | 38019 ft | 472 kts | 195° |
| 2026-05-03 23:16 | 26.49991 | -78.70611 | 38020 ft | 473 kts | 195° |
| 2026-05-03 23:16 | 26.43470 | -78.71577 | 38022 ft | 473 kts | 195° |
| 2026-05-03 23:17 | 26.36939 | -78.72547 | 38019 ft | 473 kts | 195° |
| 2026-05-03 23:17 | 26.30413 | -78.73513 | 38013 ft | 473 kts | 195° |
| 2026-05-03 23:18 | 26.23892 | -78.74479 | 38016 ft | 473 kts | 195° |
| 2026-05-03 23:18 | 26.17368 | -78.75443 | 38011 ft | 472 kts | 195° |
| 2026-05-03 23:19 | 26.10860 | -78.76404 | 38013 ft | 472 kts | 195° |
| 2026-05-03 23:19 | 26.04352 | -78.77363 | 38017 ft | 471 kts | 195° |
| 2026-05-03 23:20 | 25.97860 | -78.78320 | 38013 ft | 470 kts | 195° |
| 2026-05-03 23:20 | 25.91376 | -78.79274 | 38010 ft | 469 kts | 195° |
| 2026-05-03 23:21 | 25.84893 | -78.80228 | 38015 ft | 471 kts | 195° |
| 2026-05-03 23:21 | 25.78403 | -78.81180 | 38010 ft | 470 kts | 195° |
| 2026-05-03 23:22 | 25.68683 | -78.82607 | 38018 ft | 470 kts | 195° |
| 2026-05-03 23:22 | 25.62196 | -78.83556 | 38011 ft | 470 kts | 195° |
| 2026-05-03 23:23 | 25.55710 | -78.84505 | 38012 ft | 470 kts | 195° |
| 2026-05-03 23:23 | 25.49225 | -78.85452 | 38013 ft | 470 kts | 195° |
| 2026-05-03 23:24 | 25.42736 | -78.86399 | 38016 ft | 470 kts | 195° |
| 2026-05-03 23:24 | 25.36244 | -78.87346 | 38012 ft | 471 kts | 195° |
| 2026-05-03 23:25 | 25.29745 | -78.88293 | 38026 ft | 471 kts | 195° |
| 2026-05-03 23:25 | 25.23253 | -78.89237 | 38024 ft | 471 kts | 195° |
| 2026-05-03 23:26 | 25.16758 | -78.90181 | 38017 ft | 471 kts | 195° |
| 2026-05-03 23:26 | 25.10267 | -78.91123 | 38012 ft | 470 kts | 195° |
| 2026-05-03 23:27 | 25.03782 | -78.92064 | 38013 ft | 470 kts | 195° |
| 2026-05-03 23:27 | 24.97298 | -78.93003 | 38008 ft | 470 kts | 194° |
| 2026-05-03 23:28 | 24.90855 | -78.93935 | 38005 ft | 470 kts | 194° |
| 2026-05-03 23:28 | 24.84325 | -78.94880 | 38006 ft | 471 kts | 194° |
| 2026-05-03 23:29 | 24.77876 | -78.95811 | 38013 ft | 471 kts | 194° |
| 2026-05-03 23:29 | 24.71375 | -78.96749 | 38008 ft | 471 kts | 194° |
| 2026-05-03 23:30 | 24.64868 | -78.97687 | 38011 ft | 472 kts | 194° |
| 2026-05-03 23:30 | 24.58366 | -78.98621 | 38016 ft | 468 kts | 194° |
| 2026-05-03 23:31 | 24.51965 | -78.99541 | 38014 ft | 463 kts | 194° |
| 2026-05-03 23:31 | 24.45558 | -79.00465 | 38012 ft | 466 kts | 194° |
| 2026-05-03 23:32 | 24.39128 | -79.01385 | 38008 ft | 466 kts | 194° |
| 2026-05-03 23:32 | 24.32699 | -79.02309 | 38011 ft | 466 kts | 194° |
| 2026-05-03 23:33 | 24.26263 | -79.03229 | 38010 ft | 467 kts | 194° |
| 2026-05-03 23:33 | 24.19815 | -79.04152 | 38007 ft | 468 kts | 194° |
| 2026-05-03 23:34 | 24.13345 | -79.05077 | 38013 ft | 469 kts | 194° |
| 2026-05-03 23:34 | 24.06860 | -79.06002 | 38011 ft | 470 kts | 193° |
| 2026-05-03 23:35 | 24.00359 | -79.06917 | 38010 ft | 472 kts | 190° |
| 2026-05-03 23:35 | 23.94858 | -79.07085 | 38021 ft | 477 kts | 187° |
| 2026-05-03 23:36 | 23.88221 | -79.07250 | 38015 ft | 477 kts | 187° |
| 2026-05-03 23:36 | 23.81579 | -79.07390 | 38012 ft | 478 kts | 187° |
| 2026-05-03 23:37 | 23.74914 | -79.07544 | 38010 ft | 479 kts | 187° |
| 2026-05-03 23:37 | 23.68237 | -79.07691 | 38009 ft | 481 kts | 187° |
| 2026-05-03 23:38 | 23.61541 | -79.07842 | 38012 ft | 483 kts | 187° |
| 2026-05-03 23:38 | 23.54814 | -79.07991 | 38012 ft | 484 kts | 187° |
| 2026-05-03 23:39 | 23.48083 | -79.08141 | 38010 ft | 484 kts | 187° |
| 2026-05-03 23:39 | 23.41350 | -79.08290 | 38013 ft | 483 kts | 187° |
| 2026-05-03 23:40 | 23.34625 | -79.08440 | 38015 ft | 483 kts | 187° |
| 2026-05-03 23:40 | 23.27891 | -79.08590 | 38006 ft | 484 kts | 187° |
| 2026-05-03 23:41 | 23.21197 | -79.08738 | 38008 ft | 483 kts | 187° |
| 2026-05-03 23:41 | 23.14454 | -79.08887 | 38366 ft | 483 kts | 187° |
| 2026-05-03 23:42 | 23.11097 | -79.08961 | 38575 ft | 482 kts | 187° |
| 2026-05-03 23:42 | 23.07733 | -79.09037 | 38747 ft | 483 kts | 187° |
| 2026-05-03 23:42 | 23.04370 | -79.09111 | 38910 ft | 483 kts | 187° |
| 2026-05-03 23:42 | 23.01051 | -79.09184 | 39022 ft | 484 kts | 187° |
| 2026-05-03 23:43 | 22.94282 | -79.09333 | 39014 ft | 485 kts | 187° |
| 2026-05-03 23:43 | 22.87544 | -79.09482 | 39016 ft | 483 kts | 187° |
| 2026-05-03 23:44 | 22.80865 | -79.09630 | 39013 ft | 482 kts | 187° |
| 2026-05-03 23:44 | 22.74141 | -79.09778 | 39021 ft | 483 kts | 187° |
| 2026-05-03 23:45 | 22.67399 | -79.09927 | 39020 ft | 484 kts | 187° |
| 2026-05-03 23:45 | 22.60658 | -79.10074 | 39015 ft | 483 kts | 187° |
| 2026-05-03 23:46 | 22.53989 | -79.10219 | 39022 ft | 483 kts | 187° |
| 2026-05-03 23:46 | 22.47263 | -79.10365 | 39021 ft | 483 kts | 187° |
| 2026-05-03 23:47 | 22.40535 | -79.10511 | 39021 ft | 484 kts | 187° |
| 2026-05-03 23:47 | 22.33808 | -79.10657 | 39027 ft | 483 kts | 187° |
| 2026-05-03 23:48 | 22.27069 | -79.10804 | 39032 ft | 485 kts | 187° |
| 2026-05-03 23:48 | 22.20298 | -79.10950 | 39022 ft | 487 kts | 187° |
| 2026-05-03 23:49 | 22.13528 | -79.11097 | 39036 ft | 487 kts | 187° |
| 2026-05-03 23:49 | 22.06750 | -79.11243 | 39030 ft | 487 kts | 187° |
| 2026-05-03 23:50 | 21.99973 | -79.11389 | 39023 ft | 487 kts | 187° |
| 2026-05-03 23:50 | 21.93207 | -79.11534 | 39023 ft | 486 kts | 187° |
| 2026-05-03 23:51 | 21.86437 | -79.11680 | 39024 ft | 486 kts | 187° |
| 2026-05-03 23:51 | 21.79675 | -79.11833 | 39023 ft | 486 kts | 187° |
| 2026-05-03 23:52 | 21.72908 | -79.11984 | 39020 ft | 486 kts | 187° |
| 2026-05-03 23:52 | 21.66147 | -79.12135 | 39017 ft | 486 kts | 187° |
| 2026-05-03 23:53 | 21.59419 | -79.12287 | 39015 ft | 487 kts | 187° |
| 2026-05-03 23:53 | 21.52653 | -79.12438 | 39012 ft | 486 kts | 187° |
| 2026-05-03 23:54 | 21.45901 | -79.12589 | 39014 ft | 485 kts | 187° |
| 2026-05-03 23:54 | 21.39160 | -79.12740 | 39010 ft | 484 kts | 187° |
| 2026-05-03 23:55 | 21.32425 | -79.12891 | 39014 ft | 485 kts | 187° |
| 2026-05-03 23:55 | 21.25677 | -79.13042 | 39010 ft | 486 kts | 187° |
| 2026-05-03 23:56 | 21.18915 | -79.13193 | 39012 ft | 486 kts | 187° |
| 2026-05-03 23:56 | 21.12143 | -79.13344 | 39011 ft | 486 kts | 187° |
| 2026-05-03 23:57 | 21.05390 | -79.13495 | 39009 ft | 485 kts | 187° |
| 2026-05-03 23:57 | 20.98633 | -79.13646 | 39007 ft | 485 kts | 187° |
| 2026-05-03 23:58 | 20.91878 | -79.13797 | 39010 ft | 486 kts | 187° |
| 2026-05-03 23:58 | 20.85106 | -79.13948 | 39011 ft | 487 kts | 187° |
| 2026-05-03 23:59 | 20.78324 | -79.14099 | 39012 ft | 488 kts | 187° |
| 2026-05-03 23:59 | 20.71534 | -79.14250 | 39010 ft | 488 kts | 187° |
| 2026-05-04 00:00 | 20.64736 | -79.14401 | 39011 ft | 488 kts | 187° |
| 2026-05-04 00:00 | 20.57964 | -79.14551 | 39014 ft | 486 kts | 187° |
| 2026-05-04 00:01 | 20.51203 | -79.14702 | 39011 ft | 486 kts | 187° |
| 2026-05-04 00:01 | 20.44448 | -79.14851 | 39012 ft | 486 kts | 187° |
| 2026-05-04 00:02 | 20.37680 | -79.15002 | 39013 ft | 487 kts | 187° |
| 2026-05-04 00:02 | 20.30907 | -79.15151 | 39014 ft | 487 kts | 187° |
| 2026-05-04 00:03 | 20.24129 | -79.15301 | 39018 ft | 487 kts | 187° |
| 2026-05-04 00:03 | 20.17407 | -79.15449 | 39015 ft | 486 kts | 187° |
| 2026-05-04 00:04 | 20.10659 | -79.15598 | 39015 ft | 485 kts | 187° |
| 2026-05-04 00:04 | 20.03915 | -79.15747 | 39016 ft | 485 kts | 186° |
| 2026-05-04 00:05 | 19.97175 | -79.15907 | 39017 ft | 484 kts | 187° |
| 2026-05-04 00:05 | 19.90455 | -79.16180 | 39011 ft | 484 kts | 187° |
| 2026-05-04 00:06 | 19.83717 | -79.16397 | 39012 ft | 485 kts | 187° |
| 2026-05-04 00:06 | 19.76977 | -79.16640 | 39014 ft | 484 kts | 187° |
| 2026-05-04 00:07 | 19.70243 | -79.16872 | 39013 ft | 484 kts | 187° |
| 2026-05-04 00:07 | 19.63502 | -79.17108 | 39014 ft | 485 kts | 187° |
| 2026-05-04 00:08 | 19.56752 | -79.17342 | 39014 ft | 485 kts | 187° |
| 2026-05-04 00:08 | 19.50000 | -79.17577 | 39015 ft | 486 kts | 187° |
| 2026-05-04 00:09 | 19.43247 | -79.17812 | 39015 ft | 486 kts | 187° |
| 2026-05-04 00:09 | 19.36487 | -79.18047 | 39016 ft | 486 kts | 187° |
| 2026-05-04 00:10 | 19.29722 | -79.18282 | 39014 ft | 487 kts | 187° |
| 2026-05-04 00:10 | 19.22937 | -79.18517 | 39018 ft | 488 kts | 187° |
| 2026-05-04 00:11 | 19.16142 | -79.18752 | 39020 ft | 489 kts | 187° |
| 2026-05-04 00:11 | 19.09331 | -79.18988 | 39020 ft | 489 kts | 187° |
| 2026-05-04 00:12 | 19.02535 | -79.19223 | 39015 ft | 488 kts | 187° |
| 2026-05-04 00:12 | 18.95754 | -79.19458 | 39011 ft | 488 kts | 187° |
| 2026-05-04 00:13 | 18.88962 | -79.19692 | 39013 ft | 488 kts | 187° |
| 2026-05-04 00:13 | 18.82165 | -79.19927 | 39010 ft | 489 kts | 187° |
| 2026-05-04 00:14 | 18.75352 | -79.20161 | 39010 ft | 490 kts | 187° |
| 2026-05-04 00:14 | 18.68528 | -79.20397 | 39019 ft | 491 kts | 187° |
| 2026-05-04 00:15 | 18.61697 | -79.20632 | 39018 ft | 491 kts | 187° |
| 2026-05-04 00:15 | 18.54869 | -79.20866 | 39012 ft | 491 kts | 187° |
| 2026-05-04 00:16 | 18.48046 | -79.21101 | 39006 ft | 490 kts | 187° |
| 2026-05-04 00:16 | 18.41280 | -79.21333 | 38996 ft | 490 kts | 186° |
| 2026-05-04 00:17 | 18.34474 | -79.21567 | 39002 ft | 489 kts | 186° |
| 2026-05-04 00:17 | 18.27674 | -79.21800 | 39000 ft | 489 kts | 186° |
| 2026-05-04 00:18 | 18.20863 | -79.22033 | 39006 ft | 490 kts | 186° |
| 2026-05-04 00:18 | 18.14053 | -79.22266 | 38996 ft | 490 kts | 186° |
| 2026-05-04 00:19 | 18.07247 | -79.22499 | 38990 ft | 489 kts | 186° |
| 2026-05-04 00:19 | 18.00446 | -79.22732 | 39000 ft | 488 kts | 186° |
| 2026-05-04 00:20 | 17.93662 | -79.22963 | 38997 ft | 488 kts | 186° |
| 2026-05-04 00:20 | 17.86881 | -79.23195 | 38999 ft | 488 kts | 185° |
| 2026-05-04 00:21 | 17.80101 | -79.23426 | 38995 ft | 487 kts | 185° |
| 2026-05-04 00:21 | 17.73327 | -79.23657 | 38990 ft | 486 kts | 185° |
| 2026-05-04 00:22 | 17.66564 | -79.23887 | 38984 ft | 487 kts | 185° |
| 2026-05-04 00:22 | 17.59775 | -79.24118 | 38985 ft | 488 kts | 185° |
| 2026-05-04 00:23 | 17.52981 | -79.24349 | 38988 ft | 489 kts | 185° |
| 2026-05-04 00:23 | 17.46185 | -79.24580 | 38989 ft | 488 kts | 185° |
| 2026-05-04 00:24 | 17.39393 | -79.24810 | 38988 ft | 489 kts | 185° |
| 2026-05-04 00:24 | 17.33737 | -79.25002 | 38985 ft | 489 kts | 185° |
| 2026-05-04 00:25 | 17.26937 | -79.25233 | 38985 ft | 489 kts | 185° |
| 2026-05-04 00:25 | 17.19034 | -79.25500 | 38982 ft | 488 kts | 185° |
| 2026-05-04 00:26 | 17.13347 | -79.25693 | 38986 ft | 488 kts | 185° |
| 2026-05-04 00:26 | 17.06549 | -79.25923 | 38987 ft | 489 kts | 185° |
| 2026-05-04 00:27 | 16.99782 | -79.26152 | 38988 ft | 490 kts | 185° |
| 2026-05-04 00:27 | 16.93078 | -79.26378 | 38984 ft | 489 kts | 185° |
| 2026-05-04 00:28 | 16.86291 | -79.26607 | 38986 ft | 487 kts | 185° |
| 2026-05-04 00:28 | 16.79525 | -79.26835 | 38978 ft | 485 kts | 185° |
| 2026-05-04 00:29 | 16.72789 | -79.27062 | 38984 ft | 484 kts | 185° |
| 2026-05-04 00:29 | 16.66055 | -79.27289 | 38984 ft | 484 kts | 185° |
| 2026-05-04 00:30 | 16.59345 | -79.27514 | 38977 ft | 481 kts | 185° |
| 2026-05-04 00:30 | 16.52618 | -79.27742 | 38982 ft | 484 kts | 184° |
| 2026-05-04 00:31 | 16.45921 | -79.27966 | 38981 ft | 485 kts | 184° |
| 2026-05-04 00:31 | 16.39170 | -79.28193 | 38984 ft | 486 kts | 184° |
| 2026-05-04 00:32 | 16.32405 | -79.28420 | 38981 ft | 486 kts | 184° |
| 2026-05-04 00:32 | 16.25648 | -79.28647 | 38981 ft | 486 kts | 184° |
| 2026-05-04 00:33 | 16.15488 | -79.28987 | 38978 ft | 488 kts | 184° |
| 2026-05-04 00:34 | 16.08683 | -79.29215 | 38978 ft | 489 kts | 184° |
| 2026-05-04 00:34 | 16.01875 | -79.29443 | 38978 ft | 489 kts | 184° |
| 2026-05-04 00:35 | 15.95115 | -79.29669 | 38973 ft | 489 kts | 184° |
| 2026-05-04 00:35 | 15.88263 | -79.29898 | 38971 ft | 490 kts | 184° |
| 2026-05-04 00:36 | 15.81485 | -79.30124 | 38970 ft | 491 kts | 184° |
| 2026-05-04 00:36 | 15.74639 | -79.30352 | 38974 ft | 492 kts | 184° |
| 2026-05-04 00:37 | 15.67799 | -79.30580 | 38974 ft | 491 kts | 184° |
| 2026-05-04 00:37 | 15.60969 | -79.30808 | 38969 ft | 491 kts | 184° |
| 2026-05-04 00:38 | 15.54135 | -79.31036 | 38969 ft | 491 kts | 184° |
| 2026-05-04 00:38 | 15.47299 | -79.31263 | 38967 ft | 491 kts | 184° |
| 2026-05-04 00:39 | 15.40471 | -79.31490 | 38967 ft | 490 kts | 184° |
| 2026-05-04 00:39 | 15.33654 | -79.31717 | 38966 ft | 489 kts | 184° |
| 2026-05-04 00:40 | 15.26852 | -79.31943 | 38967 ft | 489 kts | 184° |
| 2026-05-04 00:40 | 15.20041 | -79.32169 | 38968 ft | 489 kts | 184° |
| 2026-05-04 00:41 | 15.13237 | -79.32394 | 38964 ft | 489 kts | 184° |
| 2026-05-04 00:41 | 15.06431 | -79.32620 | 38961 ft | 490 kts | 184° |
| 2026-05-04 00:42 | 14.99617 | -79.32846 | 38967 ft | 491 kts | 184° |
| 2026-05-04 00:42 | 14.92790 | -79.33115 | 38964 ft | 491 kts | 184° |
| 2026-05-04 00:43 | 14.85948 | -79.33385 | 38965 ft | 492 kts | 184° |
| 2026-05-04 00:43 | 14.79104 | -79.33651 | 38967 ft | 492 kts | 184° |
| 2026-05-04 00:44 | 14.72261 | -79.33921 | 38966 ft | 492 kts | 184° |
| 2026-05-04 00:44 | 14.65424 | -79.34187 | 38967 ft | 491 kts | 184° |
| 2026-05-04 00:45 | 14.58592 | -79.34455 | 38965 ft | 491 kts | 184° |
| 2026-05-04 00:45 | 14.51819 | -79.34719 | 38959 ft | 490 kts | 184° |
| 2026-05-04 00:46 | 14.45003 | -79.34986 | 38961 ft | 490 kts | 184° |
| 2026-05-04 00:46 | 14.38188 | -79.35251 | 38956 ft | 490 kts | 184° |
| 2026-05-04 00:47 | 14.31378 | -79.35517 | 38957 ft | 490 kts | 184° |
| 2026-05-04 00:47 | 14.24570 | -79.35782 | 38958 ft | 489 kts | 184° |
| 2026-05-04 00:48 | 14.17761 | -79.36048 | 38955 ft | 490 kts | 184° |
| 2026-05-04 00:48 | 14.10954 | -79.36313 | 38952 ft | 489 kts | 184° |
| 2026-05-04 00:49 | 14.04150 | -79.36578 | 38954 ft | 489 kts | 184° |
| 2026-05-04 00:49 | 13.97340 | -79.36842 | 38956 ft | 489 kts | 184° |
| 2026-05-04 00:50 | 13.90577 | -79.37105 | 38952 ft | 489 kts | 184° |
| 2026-05-04 00:50 | 13.83771 | -79.37370 | 38952 ft | 489 kts | 183° |
| 2026-05-04 00:51 | 13.76964 | -79.37634 | 38948 ft | 489 kts | 183° |
| 2026-05-04 00:51 | 13.70145 | -79.37899 | 38955 ft | 489 kts | 183° |
| 2026-05-04 00:52 | 13.63331 | -79.38162 | 38954 ft | 490 kts | 183° |
| 2026-05-04 00:52 | 13.56522 | -79.38426 | 38958 ft | 490 kts | 183° |
| 2026-05-04 00:53 | 13.49757 | -79.38689 | 38954 ft | 490 kts | 183° |
| 2026-05-04 00:53 | 13.42945 | -79.38952 | 38953 ft | 490 kts | 182° |
| 2026-05-04 00:54 | 13.36137 | -79.39215 | 38955 ft | 489 kts | 182° |
| 2026-05-04 00:54 | 13.29338 | -79.39478 | 38950 ft | 489 kts | 182° |
| 2026-05-04 00:55 | 13.22542 | -79.39741 | 38950 ft | 489 kts | 182° |
| 2026-05-04 00:55 | 13.15749 | -79.40003 | 38951 ft | 488 kts | 182° |
| 2026-05-04 00:56 | 13.08959 | -79.40265 | 38946 ft | 488 kts | 182° |
| 2026-05-04 00:56 | 13.02172 | -79.40527 | 38946 ft | 488 kts | 182° |
| 2026-05-04 00:57 | 12.95393 | -79.40788 | 38943 ft | 487 kts | 182° |
| 2026-05-04 00:57 | 12.88616 | -79.41050 | 38940 ft | 487 kts | 182° |
| 2026-05-04 00:58 | 12.81845 | -79.41310 | 38938 ft | 487 kts | 182° |
| 2026-05-04 00:58 | 12.75073 | -79.41571 | 38940 ft | 487 kts | 182° |
| 2026-05-04 00:59 | 12.68305 | -79.41831 | 38943 ft | 486 kts | 182° |
| 2026-05-04 00:59 | 12.61610 | -79.42089 | 38942 ft | 486 kts | 182° |
| 2026-05-04 01:00 | 12.54854 | -79.42349 | 38937 ft | 486 kts | 182° |
| 2026-05-04 01:00 | 12.48101 | -79.42608 | 38938 ft | 485 kts | 182° |
| 2026-05-04 01:01 | 12.41399 | -79.42865 | 38942 ft | 485 kts | 182° |
| 2026-05-04 01:01 | 12.34652 | -79.43124 | 38940 ft | 485 kts | 182° |
| 2026-05-04 01:02 | 12.27909 | -79.43383 | 38935 ft | 485 kts | 181° |
| 2026-05-04 01:02 | 12.21164 | -79.43641 | 38940 ft | 485 kts | 182° |
| 2026-05-04 01:03 | 12.14417 | -79.43900 | 38941 ft | 486 kts | 182° |
| 2026-05-04 01:03 | 12.07661 | -79.44159 | 38936 ft | 485 kts | 181° |
| 2026-05-04 01:04 | 12.00909 | -79.44417 | 38931 ft | 486 kts | 182° |
| 2026-05-04 01:04 | 11.94147 | -79.44676 | 38939 ft | 486 kts | 182° |
| 2026-05-04 01:05 | 11.87387 | -79.44934 | 38941 ft | 486 kts | 182° |
| 2026-05-04 01:05 | 11.80619 | -79.45193 | 38943 ft | 486 kts | 182° |
| 2026-05-04 01:06 | 11.73861 | -79.45451 | 38947 ft | 486 kts | 182° |
| 2026-05-04 01:06 | 11.67106 | -79.45709 | 38937 ft | 486 kts | 181° |
| 2026-05-04 01:07 | 11.60350 | -79.45966 | 38938 ft | 486 kts | 181° |
| 2026-05-04 01:07 | 11.53595 | -79.46224 | 38944 ft | 486 kts | 181° |
| 2026-05-04 01:08 | 11.46847 | -79.46482 | 38941 ft | 485 kts | 181° |
| 2026-05-04 01:08 | 11.40100 | -79.46739 | 38945 ft | 485 kts | 181° |
| 2026-05-04 01:09 | 11.33344 | -79.46996 | 38941 ft | 486 kts | 181° |
| 2026-05-04 01:09 | 11.26594 | -79.47253 | 38944 ft | 485 kts | 181° |
| 2026-05-04 01:10 | 11.19846 | -79.47510 | 38940 ft | 485 kts | 181° |
| 2026-05-04 01:10 | 11.13101 | -79.47767 | 38941 ft | 485 kts | 181° |
| 2026-05-04 01:11 | 11.06355 | -79.48022 | 38943 ft | 485 kts | 181° |
| 2026-05-04 01:11 | 10.99621 | -79.48279 | 38945 ft | 484 kts | 181° |
| 2026-05-04 01:12 | 10.92885 | -79.48534 | 38946 ft | 484 kts | 181° |
| 2026-05-04 01:12 | 10.86155 | -79.48790 | 38940 ft | 484 kts | 181° |
| 2026-05-04 01:13 | 10.79428 | -79.49045 | 38939 ft | 484 kts | 181° |
| 2026-05-04 01:13 | 10.72701 | -79.49301 | 38939 ft | 483 kts | 181° |
| 2026-05-04 01:14 | 10.67110 | -79.49513 | 38938 ft | 484 kts | 181° |
| 2026-05-04 01:14 | 10.60377 | -79.49768 | 38936 ft | 484 kts | 181° |
| 2026-05-04 01:15 | 10.53654 | -79.50023 | 38939 ft | 483 kts | 181° |
| 2026-05-04 01:15 | 10.46919 | -79.50265 | 38936 ft | 485 kts | 181° |
| 2026-05-04 01:16 | 10.40180 | -79.50501 | 38936 ft | 484 kts | 181° |
| 2026-05-04 01:16 | 10.33443 | -79.50743 | 38935 ft | 485 kts | 181° |
| 2026-05-04 01:17 | 10.26705 | -79.50980 | 38936 ft | 484 kts | 181° |
| 2026-05-04 01:17 | 10.19969 | -79.51220 | 38936 ft | 484 kts | 181° |
| 2026-05-04 01:18 | 10.13224 | -79.51458 | 38934 ft | 486 kts | 181° |
| 2026-05-04 01:18 | 10.06463 | -79.51698 | 38940 ft | 486 kts | 181° |
| 2026-05-04 01:19 | 9.99752 | -79.51935 | 38939 ft | 486 kts | 181° |
| 2026-05-04 01:19 | 9.92997 | -79.52174 | 38935 ft | 485 kts | 181° |
| 2026-05-04 01:20 | 9.86255 | -79.52412 | 38935 ft | 485 kts | 181° |
| 2026-05-04 01:20 | 9.79509 | -79.52651 | 38931 ft | 485 kts | 181° |
| 2026-05-04 01:21 | 9.72762 | -79.52890 | 38933 ft | 485 kts | 181° |
| 2026-05-04 01:21 | 9.66011 | -79.53128 | 38933 ft | 485 kts | 181° |
| 2026-05-04 01:22 | 9.59266 | -79.53366 | 38933 ft | 485 kts | 181° |
| 2026-05-04 01:22 | 9.52526 | -79.53604 | 38931 ft | 484 kts | 181° |
| 2026-05-04 01:23 | 9.45798 | -79.53841 | 38929 ft | 484 kts | 181° |
| 2026-05-04 01:23 | 9.39064 | -79.54079 | 38927 ft | 484 kts | 181° |
| 2026-05-04 01:24 | 9.32706 | -79.54303 | 38923 ft | 485 kts | 181° |
| 2026-05-04 01:24 | 9.25955 | -79.54541 | 38922 ft | 486 kts | 181° |
| 2026-05-04 01:25 | 9.19199 | -79.54779 | 38919 ft | 485 kts | 181° |
| 2026-05-04 01:25 | 9.12453 | -79.55016 | 38939 ft | 485 kts | 181° |
| 2026-05-04 01:26 | 9.05707 | -79.55254 | 38941 ft | 485 kts | 181° |
| 2026-05-04 01:26 | 8.98950 | -79.55492 | 38943 ft | 487 kts | 181° |
| 2026-05-04 01:27 | 8.92166 | -79.55730 | 38913 ft | 488 kts | 181° |
| 2026-05-04 01:27 | 8.85363 | -79.55970 | 38917 ft | 490 kts | 181° |
| 2026-05-04 01:28 | 8.78611 | -79.55401 | 38939 ft | 488 kts | 162° |
| 2026-05-04 01:28 | 8.75441 | -79.54186 | 38939 ft | 487 kts | 151° |
| 2026-05-04 01:28 | 8.72489 | -79.52511 | 38919 ft | 488 kts | 149° |
| 2026-05-04 01:29 | 8.66667 | -79.49085 | 38919 ft | 487 kts | 149° |
| 2026-05-04 01:29 | 8.60814 | -79.45636 | 38924 ft | 487 kts | 149° |
| 2026-05-04 01:30 | 8.54945 | -79.42187 | 38921 ft | 488 kts | 149° |
| 2026-05-04 01:30 | 8.49085 | -79.38738 | 38921 ft | 487 kts | 149° |
| 2026-05-04 01:31 | 8.43227 | -79.35296 | 38927 ft | 487 kts | 149° |
| 2026-05-04 01:31 | 8.37443 | -79.31895 | 38926 ft | 488 kts | 149° |
| 2026-05-04 01:32 | 8.31567 | -79.28444 | 38929 ft | 489 kts | 149° |
| 2026-05-04 01:32 | 8.25689 | -79.24991 | 38935 ft | 488 kts | 149° |
| 2026-05-04 01:33 | 8.19818 | -79.21544 | 38938 ft | 488 kts | 149° |
| 2026-05-04 01:33 | 8.13945 | -79.18098 | 38937 ft | 488 kts | 149° |
| 2026-05-04 01:34 | 8.08076 | -79.14655 | 38936 ft | 488 kts | 149° |
| 2026-05-04 01:34 | 8.02210 | -79.11214 | 38938 ft | 488 kts | 149° |
| 2026-05-04 01:35 | 7.96347 | -79.07776 | 38937 ft | 487 kts | 149° |
| 2026-05-04 01:35 | 7.90487 | -79.04343 | 38943 ft | 487 kts | 149° |
| 2026-05-04 01:36 | 7.84637 | -79.00915 | 38939 ft | 486 kts | 149° |
| 2026-05-04 01:36 | 7.78791 | -78.97490 | 38939 ft | 486 kts | 149° |
| 2026-05-04 01:37 | 7.72934 | -78.94061 | 38940 ft | 487 kts | 149° |
| 2026-05-04 01:37 | 7.67121 | -78.90659 | 38939 ft | 486 kts | 149° |
| 2026-05-04 01:38 | 7.61271 | -78.87235 | 38939 ft | 485 kts | 149° |
| 2026-05-04 01:38 | 7.55446 | -78.83828 | 38937 ft | 484 kts | 149° |
| 2026-05-04 01:39 | 7.49616 | -78.80419 | 38941 ft | 484 kts | 149° |
| 2026-05-04 01:39 | 7.43842 | -78.76939 | 38943 ft | 483 kts | 147° |
| 2026-05-04 01:40 | 7.38087 | -78.73425 | 38943 ft | 484 kts | 148° |
| 2026-05-04 01:40 | 7.32298 | -78.69932 | 38945 ft | 485 kts | 147° |
| 2026-05-04 01:41 | 7.26529 | -78.66423 | 38946 ft | 484 kts | 148° |
| 2026-05-04 01:41 | 7.20760 | -78.62935 | 38946 ft | 483 kts | 147° |
| 2026-05-04 01:42 | 7.15044 | -78.59467 | 38946 ft | 482 kts | 148° |
| 2026-05-04 01:42 | 7.09289 | -78.55984 | 38948 ft | 483 kts | 147° |
| 2026-05-04 01:43 | 7.03531 | -78.52497 | 38948 ft | 482 kts | 147° |
| 2026-05-04 01:43 | 6.97784 | -78.49019 | 38944 ft | 482 kts | 147° |
| 2026-05-04 01:44 | 6.92039 | -78.45542 | 38943 ft | 482 kts | 147° |
| 2026-05-04 01:44 | 6.86283 | -78.42060 | 38944 ft | 482 kts | 147° |
| 2026-05-04 01:45 | 6.80527 | -78.38579 | 38944 ft | 483 kts | 147° |
| 2026-05-04 01:45 | 6.71869 | -78.33345 | 38946 ft | 484 kts | 147° |
| 2026-05-04 01:46 | 6.66056 | -78.29933 | 38950 ft | 483 kts | 148° |
| 2026-05-04 01:46 | 6.60248 | -78.26542 | 38951 ft | 482 kts | 148° |
| 2026-05-04 01:47 | 6.54452 | -78.23138 | 38945 ft | 483 kts | 148° |
| 2026-05-04 01:47 | 6.48638 | -78.19742 | 38948 ft | 483 kts | 148° |
| 2026-05-04 01:48 | 6.42823 | -78.16334 | 38949 ft | 484 kts | 148° |
| 2026-05-04 01:48 | 6.37010 | -78.12936 | 38950 ft | 483 kts | 148° |
| 2026-05-04 01:49 | 6.31202 | -78.09538 | 38946 ft | 483 kts | 148° |
| 2026-05-04 01:49 | 6.25400 | -78.06146 | 38944 ft | 482 kts | 148° |
| 2026-05-04 01:50 | 6.19598 | -78.02753 | 38943 ft | 483 kts | 148° |
| 2026-05-04 01:50 | 6.13788 | -77.99358 | 38943 ft | 483 kts | 148° |
| 2026-05-04 01:51 | 6.08023 | -77.95990 | 38941 ft | 482 kts | 148° |
| 2026-05-04 01:51 | 6.02188 | -77.92581 | 38940 ft | 482 kts | 148° |
| 2026-05-04 01:52 | 5.96421 | -77.89213 | 38939 ft | 483 kts | 148° |
| 2026-05-04 01:52 | 5.90604 | -77.85817 | 38944 ft | 484 kts | 148° |
| 2026-05-04 01:53 | 5.84777 | -77.82416 | 38943 ft | 484 kts | 148° |
| 2026-05-04 01:53 | 5.78956 | -77.79018 | 38944 ft | 484 kts | 148° |
| 2026-05-04 01:54 | 5.73140 | -77.75625 | 38945 ft | 483 kts | 148° |
| 2026-05-04 01:54 | 5.67332 | -77.72237 | 38941 ft | 483 kts | 148° |
| 2026-05-04 01:55 | 5.61529 | -77.68854 | 38942 ft | 482 kts | 148° |
| 2026-05-04 01:55 | 5.55724 | -77.65469 | 38943 ft | 483 kts | 148° |
| 2026-05-04 01:56 | 5.49911 | -77.62081 | 38942 ft | 484 kts | 148° |
| 2026-05-04 01:56 | 5.44087 | -77.58687 | 38943 ft | 484 kts | 148° |
| 2026-05-04 01:57 | 5.38263 | -77.55293 | 38945 ft | 484 kts | 148° |
| 2026-05-04 01:57 | 5.32441 | -77.51902 | 38943 ft | 483 kts | 148° |
| 2026-05-04 01:58 | 5.26619 | -77.48512 | 38945 ft | 484 kts | 148° |
| 2026-05-04 01:58 | 5.20788 | -77.45117 | 38946 ft | 485 kts | 148° |
| 2026-05-04 01:59 | 5.14995 | -77.41745 | 38943 ft | 484 kts | 148° |
| 2026-05-04 01:59 | 5.09167 | -77.38353 | 38943 ft | 484 kts | 148° |
| 2026-05-04 02:00 | 5.03347 | -77.34966 | 38943 ft | 484 kts | 148° |
| 2026-05-04 02:00 | 4.97527 | -77.31580 | 38944 ft | 483 kts | 148° |
| 2026-05-04 02:01 | 4.91710 | -77.28197 | 38938 ft | 484 kts | 148° |
| 2026-05-04 02:01 | 4.85878 | -77.24806 | 38938 ft | 485 kts | 148° |
| 2026-05-04 02:02 | 4.80033 | -77.21408 | 38944 ft | 486 kts | 148° |
| 2026-05-04 02:02 | 4.74171 | -77.18000 | 38943 ft | 487 kts | 148° |
| 2026-05-04 02:03 | 4.68317 | -77.14599 | 38944 ft | 487 kts | 148° |
| 2026-05-04 02:03 | 4.62459 | -77.11195 | 38940 ft | 486 kts | 148° |
| 2026-05-04 02:04 | 4.56630 | -77.07809 | 38438 ft | 482 kts | 148° |
| 2026-05-04 02:04 | 4.53713 | -77.06114 | 37621 ft | 484 kts | 148° |
| 2026-05-04 02:04 | 4.51783 | -77.04993 | 37166 ft | 483 kts | 148° |
| 2026-05-04 02:05 | 4.48883 | -77.03309 | 36492 ft | 482 kts | 148° |
| 2026-05-04 02:05 | 4.45982 | -77.01625 | 35814 ft | 481 kts | 148° |
| 2026-05-04 02:05 | 4.43085 | -76.99942 | 35096 ft | 482 kts | 148° |
| 2026-05-04 02:05 | 4.40177 | -76.98254 | 34355 ft | 484 kts | 148° |
| 2026-05-04 02:06 | 4.37256 | -76.96558 | 33530 ft | 487 kts | 148° |
| 2026-05-04 02:06 | 4.34320 | -76.94854 | 32744 ft | 489 kts | 148° |
| 2026-05-04 02:06 | 4.31367 | -76.93139 | 31902 ft | 492 kts | 148° |
| 2026-05-04 02:06 | 4.28394 | -76.91414 | 31039 ft | 496 kts | 148° |
| 2026-05-04 02:07 | 4.25401 | -76.89678 | 30109 ft | 499 kts | 148° |
| 2026-05-04 02:07 | 4.22261 | -76.88203 | 29289 ft | 497 kts | 156° |
| 2026-05-04 02:07 | 4.19076 | -76.86924 | 28640 ft | 489 kts | 156° |
| 2026-05-04 02:07 | 4.15946 | -76.85667 | 27996 ft | 481 kts | 156° |
| 2026-05-04 02:08 | 4.12857 | -76.84439 | 27368 ft | 474 kts | 156° |
| 2026-05-04 02:08 | 4.09810 | -76.83226 | 26744 ft | 468 kts | 156° |
| 2026-05-04 02:08 | 4.06809 | -76.82025 | 26132 ft | 462 kts | 156° |
| 2026-05-04 02:08 | 4.03846 | -76.80840 | 25530 ft | 456 kts | 156° |
| 2026-05-04 02:09 | 4.00920 | -76.79672 | 24933 ft | 450 kts | 156° |
| 2026-05-04 02:09 | 3.98030 | -76.78520 | 24346 ft | 445 kts | 156° |
| 2026-05-04 02:09 | 3.95171 | -76.77379 | 23766 ft | 439 kts | 156° |
| 2026-05-04 02:09 | 3.92350 | -76.76252 | 23140 ft | 434 kts | 156° |
| 2026-05-04 02:10 | 3.89567 | -76.75141 | 22566 ft | 427 kts | 156° |
| 2026-05-04 02:10 | 3.86833 | -76.74051 | 22012 ft | 419 kts | 156° |
| 2026-05-04 02:10 | 3.84152 | -76.72981 | 21468 ft | 412 kts | 156° |
| 2026-05-04 02:10 | 3.81530 | -76.71935 | 20926 ft | 392 kts | 156° |
| 2026-05-04 02:11 | 3.79103 | -76.70971 | 20427 ft | 360 kts | 156° |
| 2026-05-04 02:11 | 3.76865 | -76.70078 | 20025 ft | 332 kts | 155° |
| 2026-05-04 02:11 | 3.74798 | -76.69253 | 19708 ft | 306 kts | 155° |
| 2026-05-04 02:11 | 3.72893 | -76.68492 | 19403 ft | 284 kts | 155° |
| 2026-05-04 02:12 | 3.71119 | -76.67784 | 19109 ft | 265 kts | 154° |
| 2026-05-04 02:12 | 3.69470 | -76.67127 | 18836 ft | 245 kts | 154° |
| 2026-05-04 02:12 | 3.67911 | -76.66503 | 18585 ft | 239 kts | 154° |
| 2026-05-04 02:12 | 3.66368 | -76.65885 | 18292 ft | 237 kts | 154° |
| 2026-05-04 02:13 | 3.64836 | -76.65273 | 17978 ft | 237 kts | 154° |
| 2026-05-04 02:13 | 3.63296 | -76.64657 | 17715 ft | 252 kts | 154° |
| 2026-05-04 02:13 | 3.61582 | -76.63969 | 17321 ft | 266 kts | 155° |
| 2026-05-04 02:13 | 3.59883 | -76.63296 | 16912 ft | 267 kts | 155° |
| 2026-05-04 02:14 | 3.58134 | -76.62602 | 16543 ft | 266 kts | 155° |
| 2026-05-04 02:14 | 3.56445 | -76.61928 | 16187 ft | 264 kts | 155° |
| 2026-05-04 02:14 | 3.54724 | -76.61241 | 15839 ft | 262 kts | 155° |
| 2026-05-04 02:14 | 3.53039 | -76.60568 | 15509 ft | 260 kts | 155° |
| 2026-05-04 02:15 | 3.51357 | -76.59912 | 15167 ft | 259 kts | 160° |
| 2026-05-04 02:15 | 3.49584 | -76.59651 | 14857 ft | 258 kts | 172° |
| 2026-05-04 02:15 | 3.47807 | -76.59390 | 14507 ft | 259 kts | 167° |
| 2026-05-04 02:15 | 3.46030 | -76.59093 | 14163 ft | 258 kts | 168° |
| 2026-05-04 02:16 | 3.44256 | -76.58833 | 13829 ft | 258 kts | 169° |
| 2026-05-04 02:16 | 3.42508 | -76.58589 | 13497 ft | 255 kts | 169° |
| 2026-05-04 02:16 | 3.40781 | -76.58344 | 13195 ft | 249 kts | 169° |
| 2026-05-04 02:16 | 3.39071 | -76.58093 | 12862 ft | 247 kts | 169° |
| 2026-05-04 02:17 | 3.37375 | -76.57848 | 12546 ft | 246 kts | 169° |
| 2026-05-04 02:17 | 3.35686 | -76.57604 | 12213 ft | 245 kts | 170° |
| 2026-05-04 02:17 | 3.34004 | -76.57362 | 11887 ft | 244 kts | 170° |
| 2026-05-04 02:17 | 3.32332 | -76.57120 | 11563 ft | 242 kts | 170° |
| 2026-05-04 02:18 | 3.30671 | -76.56881 | 11243 ft | 240 kts | 170° |
| 2026-05-04 02:18 | 3.29025 | -76.56619 | 10931 ft | 238 kts | 165° |
| 2026-05-04 02:18 | 3.27615 | -76.55819 | 10592 ft | 234 kts | 135° |
| 2026-05-04 02:18 | 3.26784 | -76.54447 | 10299 ft | 232 kts | 106° |
| 2026-05-04 02:19 | 3.26639 | -76.52843 | 10015 ft | 233 kts | 90° |
| 2026-05-04 02:19 | 3.26645 | -76.51221 | 9697 ft | 233 kts | 90° |
| 2026-05-04 02:19 | 3.26657 | -76.49602 | 9385 ft | 233 kts | 90° |
| 2026-05-04 02:19 | 3.26658 | -76.47984 | 9086 ft | 232 kts | 90° |
| 2026-05-04 02:20 | 3.26656 | -76.46387 | 8798 ft | 226 kts | 90° |
| 2026-05-04 02:20 | 3.26685 | -76.44842 | 8495 ft | 218 kts | 84° |
| 2026-05-04 02:20 | 3.27280 | -76.43498 | 8167 ft | 211 kts | 51° |
| 2026-05-04 02:20 | 3.28461 | -76.42682 | 7892 ft | 206 kts | 19° |
| 2026-05-04 02:21 | 3.29866 | -76.42409 | 7556 ft | 208 kts | 9° |
| 2026-05-04 02:21 | 3.31275 | -76.42182 | 7243 ft | 198 kts | 9° |
| 2026-05-04 02:21 | 3.32586 | -76.41955 | 6999 ft | 185 kts | 9° |
| 2026-05-04 02:21 | 3.33835 | -76.41737 | 6778 ft | 180 kts | 9° |
| 2026-05-04 02:22 | 3.35076 | -76.41520 | 6570 ft | 179 kts | 9° |
| 2026-05-04 02:22 | 3.36287 | -76.41309 | 6343 ft | 175 kts | 9° |
| 2026-05-04 02:22 | 3.37497 | -76.41098 | 6122 ft | 177 kts | 9° |
| 2026-05-04 02:22 | 3.38714 | -76.40886 | 5897 ft | 177 kts | 9° |
| 2026-05-04 02:23 | 3.39925 | -76.40675 | 5670 ft | 174 kts | 9° |
| 2026-05-04 02:23 | 3.41088 | -76.40472 | 5452 ft | 167 kts | 9° |
| 2026-05-04 02:23 | 3.42225 | -76.40273 | 5243 ft | 165 kts | 9° |
| 2026-05-04 02:23 | 3.43355 | -76.40076 | 5036 ft | 165 kts | 9° |
| 2026-05-04 02:24 | 3.44484 | -76.39879 | 4839 ft | 165 kts | 9° |
| 2026-05-04 02:24 | 3.45599 | -76.39685 | 4631 ft | 165 kts | 9° |
| 2026-05-04 02:24 | 3.46731 | -76.39487 | 4429 ft | 166 kts | 9° |
| 2026-05-04 02:24 | 3.47865 | -76.39289 | 4221 ft | 165 kts | 9° |
| 2026-05-04 02:25 | 3.48998 | -76.39093 | 4001 ft | 165 kts | 9° |
| 2026-05-04 02:25 | 3.50133 | -76.38897 | 3788 ft | 166 kts | 9° |
| 2026-05-04 02:25 | 3.51280 | -76.38707 | 3550 ft | 170 kts | 11° |
| 2026-05-04 02:25 | 3.52472 | -76.38488 | 3341 ft | 176 kts | 12° |
| 2026-05-04 02:26 | 3.53642 | -76.38285 | 3178 ft | 158 kts | 10° |
| 2026-05-04 02:26 | 3.54472 | -76.38142 | 3172 ft | 82 kts | 9° |
| 2026-05-04 02:26 | 3.54819 | -76.38083 | 3172 ft | 26 kts | 11° |
| 2026-05-04 02:26 | 3.54984 | -76.38054 | 3171 ft | 23 kts | 9° |
| 2026-05-04 02:27 | 3.55088 | -76.38079 | 3176 ft | 11 kts | 298° |
| 2026-05-04 02:27 | 3.55103 | -76.38143 | 3177 ft | 7 kts | 263° |
| 2026-05-04 02:27 | 3.55084 | -76.38180 | 3177 ft | 5 kts | 233° |
| 2026-05-04 02:27 | 3.55029 | -76.38207 | 3177 ft | 13 kts | 194° |
| 2026-05-04 02:28 | 3.54921 | -76.38228 | 3177 ft | 18 kts | 190° |
| 2026-05-04 02:28 | 3.54784 | -76.38252 | 3172 ft | 22 kts | 190° |
| 2026-05-04 02:28 | 3.54626 | -76.38279 | 3173 ft | 24 kts | 190° |
| 2026-05-04 02:28 | 3.54453 | -76.38304 | 3171 ft | 26 kts | 189° |
| 2026-05-04 02:29 | 3.54278 | -76.38336 | 3170 ft | 25 kts | 191° |
| 2026-05-04 02:29 | 3.54111 | -76.38369 | 3169 ft | 24 kts | 191° |
| 2026-05-04 02:29 | 3.53948 | -76.38396 | 3169 ft | 24 kts | 188° |
| 2026-05-04 02:29 | 3.53790 | -76.38420 | 3168 ft | 22 kts | 189° |
| 2026-05-04 02:30 | 3.53643 | -76.38447 | 3168 ft | 22 kts | 191° |
| 2026-05-04 02:30 | 3.53559 | -76.38490 | 3168 ft | 7 kts | 265° |
| 2026-05-04 02:30 | 3.53555 | -76.38517 | 3168 ft | 2 kts | 243° |
| 2026-05-04 02:30 | 3.53550 | -76.38522 | 3168 ft | 1 kts | 226° |
| 2026-05-04 02:31 | 3.53540 | -76.38528 | 3169 ft | 2 kts | 208° |
| 2026-05-04 02:31 | 3.53516 | -76.38537 | 3168 ft | 5 kts | 200° |
| 2026-05-04 02:31 | 3.53497 | -76.38568 | 3168 ft | 5 kts | 266° |
| 2026-05-04 02:31 | 3.53508 | -76.38608 | 3168 ft | 4 kts | 281° |
| 2026-05-04 02:32 | 3.53509 | -76.38615 | 3168 ft | 0 kts | 281° |
| 2026-05-04 02:32 | 3.53511 | -76.38622 | 3168 ft | 1 kts | 280° |
| 2026-05-04 02:32 | 3.53511 | -76.38625 | 3168 ft | 0 kts | 280° |